sensor_id;sensor_type;location;lat;lon;timestamp;P1;durP1;ratioP1;P2;durP2;ratioP2
64037;SDS011;54641;50.168;8.492;2023-02-15T00:01:54;26.80;;;12.30;;
64037;SDS011;54641;50.168;8.492;2023-02-15T00:04:26;26.70;;;11.80;;
64037;SDS011;54641;50.168;8.492;2023-02-15T00:07:15;21.80;;;10.00;;
64037;SDS011;54641;50.168;8.492;2023-02-15T00:09:46;33.00;;;12.70;;
64037;SDS011;54641;50.168;8.492;2023-02-15T00:12:17;23.00;;;10.50;;
64037;SDS011;54641;50.168;8.492;2023-02-15T00:14:47;24.90;;;12.80;;
64037;SDS011;54641;50.168;8.492;2023-02-15T00:17:17;18.30;;;8.60;;
64037;SDS011;54641;50.168;8.492;2023-02-15T00:19:48;22.20;;;10.20;;
64037;SDS011;54641;50.168;8.492;2023-02-15T00:22:19;28.40;;;11.50;;
64037;SDS011;54641;50.168;8.492;2023-02-15T00:24:49;35.50;;;13.70;;
64037;SDS011;54641;50.168;8.492;2023-02-15T00:27:20;35.80;;;13.70;;
64037;SDS011;54641;50.168;8.492;2023-02-15T00:29:50;33.50;;;14.30;;
64037;SDS011;54641;50.168;8.492;2023-02-15T00:32:20;27.00;;;12.40;;
64037;SDS011;54641;50.168;8.492;2023-02-15T00:34:51;20.80;;;9.60;;
64037;SDS011;54641;50.168;8.492;2023-02-15T00:37:24;26.00;;;12.60;;
64037;SDS011;54641;50.168;8.492;2023-02-15T00:42:26;26.80;;;11.50;;
64037;SDS011;54641;50.168;8.492;2023-02-15T00:44:57;41.40;;;15.20;;
64037;SDS011;54641;50.168;8.492;2023-02-15T00:47:29;40.90;;;15.30;;
64037;SDS011;54641;50.168;8.492;2023-02-15T00:50:01;34.10;;;14.70;;
64037;SDS011;54641;50.168;8.492;2023-02-15T00:52:34;30.90;;;14.40;;
64037;SDS011;54641;50.168;8.492;2023-02-15T00:55:06;25.30;;;11.20;;
64037;SDS011;54641;50.168;8.492;2023-02-15T01:00:10;22.50;;;10.40;;
64037;SDS011;54641;50.168;8.492;2023-02-15T01:02:44;29.50;;;11.20;;
64037;SDS011;54641;50.168;8.492;2023-02-15T01:05:17;41.90;;;14.80;;
64037;SDS011;54641;50.168;8.492;2023-02-15T01:07:49;38.20;;;15.60;;
64037;SDS011;54641;50.168;8.492;2023-02-15T01:15:27;28.60;;;11.50;;
64037;SDS011;54641;50.168;8.492;2023-02-15T01:17:59;19.90;;;9.10;;
64037;SDS011;54641;50.168;8.492;2023-02-15T01:20:34;33.50;;;13.30;;
64037;SDS011;54641;50.168;8.492;2023-02-15T01:23:07;21.60;;;7.30;;
64037;SDS011;54641;50.168;8.492;2023-02-15T01:25:39;34.00;;;13.30;;
64037;SDS011;54641;50.168;8.492;2023-02-15T01:28:11;34.40;;;13.50;;
64037;SDS011;54641;50.168;8.492;2023-02-15T01:30:44;31.10;;;13.60;;
64037;SDS011;54641;50.168;8.492;2023-02-15T01:33:16;18.00;;;8.50;;
64037;SDS011;54641;50.168;8.492;2023-02-15T01:35:52;23.00;;;9.70;;
64037;SDS011;54641;50.168;8.492;2023-02-15T01:44:45;27.40;;;12.30;;
64037;SDS011;54641;50.168;8.492;2023-02-15T01:47:20;25.40;;;11.70;;
64037;SDS011;54641;50.168;8.492;2023-02-15T01:49:59;31.60;;;13.90;;
64037;SDS011;54641;50.168;8.492;2023-02-15T01:52:32;19.40;;;7.50;;
64037;SDS011;54641;50.168;8.492;2023-02-15T01:55:05;42.40;;;15.70;;
64037;SDS011;54641;50.168;8.492;2023-02-15T01:57:36;36.60;;;15.20;;
64037;SDS011;54641;50.168;8.492;2023-02-15T02:00:07;23.80;;;10.10;;
64037;SDS011;54641;50.168;8.492;2023-02-15T02:02:41;24.90;;;11.30;;
64037;SDS011;54641;50.168;8.492;2023-02-15T02:05:15;25.80;;;12.50;;
64037;SDS011;54641;50.168;8.492;2023-02-15T02:07:45;21.80;;;8.90;;
64037;SDS011;54641;50.168;8.492;2023-02-15T02:10:20;37.20;;;13.90;;
64037;SDS011;54641;50.168;8.492;2023-02-15T02:12:52;35.30;;;14.60;;
64037;SDS011;54641;50.168;8.492;2023-02-15T02:15:27;27.20;;;12.80;;
64037;SDS011;54641;50.168;8.492;2023-02-15T02:18:06;32.40;;;13.80;;
64037;SDS011;54641;50.168;8.492;2023-02-15T02:20:52;27.00;;;12.70;;
64037;SDS011;54641;50.168;8.492;2023-02-15T02:23:41;34.10;;;13.30;;
64037;SDS011;54641;50.168;8.492;2023-02-15T02:26:30;40.80;;;14.80;;
64037;SDS011;54641;50.168;8.492;2023-02-15T02:35:18;25.70;;;12.30;;
64037;SDS011;54641;50.168;8.492;2023-02-15T02:37:54;25.10;;;11.10;;
64037;SDS011;54641;50.168;8.492;2023-02-15T02:40:34;37.90;;;14.60;;
64037;SDS011;54641;50.168;8.492;2023-02-15T02:43:10;34.50;;;14.10;;
64037;SDS011;54641;50.168;8.492;2023-02-15T02:45:45;31.80;;;12.10;;
64037;SDS011;54641;50.168;8.492;2023-02-15T02:48:19;30.10;;;12.30;;
64037;SDS011;54641;50.168;8.492;2023-02-15T02:50:51;27.30;;;12.40;;
64037;SDS011;54641;50.168;8.492;2023-02-15T02:53:21;24.10;;;10.00;;
64037;SDS011;54641;50.168;8.492;2023-02-15T02:55:53;28.50;;;12.40;;
64037;SDS011;54641;50.168;8.492;2023-02-15T02:58:25;27.70;;;11.20;;
64037;SDS011;54641;50.168;8.492;2023-02-15T03:01:00;34.50;;;12.90;;
64037;SDS011;54641;50.168;8.492;2023-02-15T03:03:34;33.80;;;12.80;;
64037;SDS011;54641;50.168;8.492;2023-02-15T03:06:07;29.00;;;12.60;;
64037;SDS011;54641;50.168;8.492;2023-02-15T03:08:41;25.00;;;12.10;;
64037;SDS011;54641;50.168;8.492;2023-02-15T03:11:13;26.80;;;12.20;;
64037;SDS011;54641;50.168;8.492;2023-02-15T03:13:44;26.60;;;12.10;;
64037;SDS011;54641;50.168;8.492;2023-02-15T03:16:15;35.10;;;14.90;;
64037;SDS011;54641;50.168;8.492;2023-02-15T03:18:57;44.20;;;17.00;;
64037;SDS011;54641;50.168;8.492;2023-02-15T03:21:32;33.70;;;13.10;;
64037;SDS011;54641;50.168;8.492;2023-02-15T03:24:08;28.90;;;12.30;;
64037;SDS011;54641;50.168;8.492;2023-02-15T03:31:10;26.90;;;12.50;;
64037;SDS011;54641;50.168;8.492;2023-02-15T03:33:44;33.30;;;14.10;;
64037;SDS011;54641;50.168;8.492;2023-02-15T03:36:17;40.10;;;14.20;;
64037;SDS011;54641;50.168;8.492;2023-02-15T03:38:52;34.90;;;14.20;;
64037;SDS011;54641;50.168;8.492;2023-02-15T03:41:27;30.70;;;14.00;;
64037;SDS011;54641;50.168;8.492;2023-02-15T03:44:02;29.70;;;14.10;;
64037;SDS011;54641;50.168;8.492;2023-02-15T03:46:37;28.40;;;12.40;;
64037;SDS011;54641;50.168;8.492;2023-02-15T03:49:12;29.10;;;13.10;;
64037;SDS011;54641;50.168;8.492;2023-02-15T03:51:45;35.90;;;14.20;;
64037;SDS011;54641;50.168;8.492;2023-02-15T03:54:17;40.50;;;15.60;;
64037;SDS011;54641;50.168;8.492;2023-02-15T03:57:03;32.60;;;15.00;;
64037;SDS011;54641;50.168;8.492;2023-02-15T03:59:53;31.00;;;14.50;;
64037;SDS011;54641;50.168;8.492;2023-02-15T04:02:42;29.70;;;14.20;;
64037;SDS011;54641;50.168;8.492;2023-02-15T04:05:18;26.70;;;12.90;;
64037;SDS011;54641;50.168;8.492;2023-02-15T04:07:48;37.30;;;14.50;;
64037;SDS011;54641;50.168;8.492;2023-02-15T04:10:19;35.40;;;13.90;;
64037;SDS011;54641;50.168;8.492;2023-02-15T04:13:06;44.30;;;16.30;;
64037;SDS011;54641;50.168;8.492;2023-02-15T04:15:37;32.10;;;13.20;;
64037;SDS011;54641;50.168;8.492;2023-02-15T04:18:25;29.70;;;13.30;;
64037;SDS011;54641;50.168;8.492;2023-02-15T04:21:13;28.90;;;12.80;;
64037;SDS011;54641;50.168;8.492;2023-02-15T04:24:01;23.40;;;10.00;;
64037;SDS011;54641;50.168;8.492;2023-02-15T04:26:49;38.10;;;13.60;;
64037;SDS011;54641;50.168;8.492;2023-02-15T04:29:21;36.20;;;13.40;;
64037;SDS011;54641;50.168;8.492;2023-02-15T04:31:53;41.40;;;15.10;;
64037;SDS011;54641;50.168;8.492;2023-02-15T04:34:24;34.40;;;15.20;;
64037;SDS011;54641;50.168;8.492;2023-02-15T04:36:55;36.20;;;15.90;;
64037;SDS011;54641;50.168;8.492;2023-02-15T04:39:25;38.10;;;15.80;;
64037;SDS011;54641;50.168;8.492;2023-02-15T04:41:55;39.40;;;15.30;;
64037;SDS011;54641;50.168;8.492;2023-02-15T04:44:26;40.80;;;14.30;;
64037;SDS011;54641;50.168;8.492;2023-02-15T04:46:56;39.20;;;15.30;;
64037;SDS011;54641;50.168;8.492;2023-02-15T04:49:26;32.40;;;14.50;;
64037;SDS011;54641;50.168;8.492;2023-02-15T04:51:57;27.30;;;12.50;;
64037;SDS011;54641;50.168;8.492;2023-02-15T04:54:27;37.30;;;16.00;;
64037;SDS011;54641;50.168;8.492;2023-02-15T04:56:58;29.10;;;12.90;;
64037;SDS011;54641;50.168;8.492;2023-02-15T04:59:28;35.60;;;16.10;;
64037;SDS011;54641;50.168;8.492;2023-02-15T05:01:58;42.70;;;15.90;;
64037;SDS011;54641;50.168;8.492;2023-02-15T05:04:29;51.30;;;17.90;;
64037;SDS011;54641;50.168;8.492;2023-02-15T05:06:59;52.60;;;19.20;;
64037;SDS011;54641;50.168;8.492;2023-02-15T05:09:30;35.00;;;15.00;;
64037;SDS011;54641;50.168;8.492;2023-02-15T05:12:00;32.70;;;14.10;;
64037;SDS011;54641;50.168;8.492;2023-02-15T05:14:30;29.30;;;13.10;;
64037;SDS011;54641;50.168;8.492;2023-02-15T05:17:01;34.00;;;15.00;;
64037;SDS011;54641;50.168;8.492;2023-02-15T05:19:32;53.00;;;17.90;;
64037;SDS011;54641;50.168;8.492;2023-02-15T05:22:03;52.50;;;19.10;;
64037;SDS011;54641;50.168;8.492;2023-02-15T05:24:33;49.50;;;18.90;;
64037;SDS011;54641;50.168;8.492;2023-02-15T05:27:21;40.80;;;17.30;;
64037;SDS011;54641;50.168;8.492;2023-02-15T05:30:10;36.00;;;15.10;;
64037;SDS011;54641;50.168;8.492;2023-02-15T05:32:43;29.40;;;13.40;;
64037;SDS011;54641;50.168;8.492;2023-02-15T05:35:14;37.00;;;16.20;;
64037;SDS011;54641;50.168;8.492;2023-02-15T05:37:45;43.30;;;16.70;;
64037;SDS011;54641;50.168;8.492;2023-02-15T05:40:15;59.30;;;19.30;;
64037;SDS011;54641;50.168;8.492;2023-02-15T05:42:46;61.10;;;19.50;;
64037;SDS011;54641;50.168;8.492;2023-02-15T05:45:17;42.30;;;16.90;;
64037;SDS011;54641;50.168;8.492;2023-02-15T05:47:47;47.40;;;19.50;;
64037;SDS011;54641;50.168;8.492;2023-02-15T05:50:18;43.70;;;18.00;;
64037;SDS011;54641;50.168;8.492;2023-02-15T05:52:48;40.00;;;17.30;;
64037;SDS011;54641;50.168;8.492;2023-02-15T05:55:19;50.30;;;17.40;;
64037;SDS011;54641;50.168;8.492;2023-02-15T05:57:50;56.80;;;19.60;;
64037;SDS011;54641;50.168;8.492;2023-02-15T06:00:20;39.80;;;16.40;;
64037;SDS011;54641;50.168;8.492;2023-02-15T06:02:51;39.60;;;17.50;;
64037;SDS011;54641;50.168;8.492;2023-02-15T06:05:21;41.70;;;17.50;;
64037;SDS011;54641;50.168;8.492;2023-02-15T06:07:52;44.40;;;18.00;;
64037;SDS011;54641;50.168;8.492;2023-02-15T06:10:22;39.00;;;17.00;;
64037;SDS011;54641;50.168;8.492;2023-02-15T06:12:52;53.80;;;17.60;;
64037;SDS011;54641;50.168;8.492;2023-02-15T06:15:23;51.00;;;18.80;;
64037;SDS011;54641;50.168;8.492;2023-02-15T06:17:53;49.00;;;19.20;;
64037;SDS011;54641;50.168;8.492;2023-02-15T06:20:23;44.20;;;18.70;;
64037;SDS011;54641;50.168;8.492;2023-02-15T06:22:54;39.40;;;17.50;;
64037;SDS011;54641;50.168;8.492;2023-02-15T06:25:24;37.60;;;15.30;;
64037;SDS011;54641;50.168;8.492;2023-02-15T06:27:54;43.90;;;18.90;;
64037;SDS011;54641;50.168;8.492;2023-02-15T06:30:25;57.50;;;20.50;;
64037;SDS011;54641;50.168;8.492;2023-02-15T06:32:56;59.60;;;19.50;;
64037;SDS011;54641;50.168;8.492;2023-02-15T06:35:26;55.20;;;19.90;;
64037;SDS011;54641;50.168;8.492;2023-02-15T06:37:57;40.30;;;16.70;;
64037;SDS011;54641;50.168;8.492;2023-02-15T06:40:27;39.90;;;16.60;;
64037;SDS011;54641;50.168;8.492;2023-02-15T06:42:58;42.30;;;16.70;;
64037;SDS011;54641;50.168;8.492;2023-02-15T06:45:28;42.80;;;16.50;;
64037;SDS011;54641;50.168;8.492;2023-02-15T06:47:59;50.30;;;17.30;;
64037;SDS011;54641;50.168;8.492;2023-02-15T06:50:29;49.80;;;17.80;;
64037;SDS011;54641;50.168;8.492;2023-02-15T06:53:00;42.40;;;15.90;;
64037;SDS011;54641;50.168;8.492;2023-02-15T06:55:31;39.60;;;17.10;;
64037;SDS011;54641;50.168;8.492;2023-02-15T06:58:01;34.10;;;14.80;;
64037;SDS011;54641;50.168;8.492;2023-02-15T07:00:32;41.00;;;16.00;;
64037;SDS011;54641;50.168;8.492;2023-02-15T07:03:02;48.80;;;16.10;;
64037;SDS011;54641;50.168;8.492;2023-02-15T07:05:33;46.70;;;17.10;;
64037;SDS011;54641;50.168;8.492;2023-02-15T07:08:04;37.90;;;15.70;;
64037;SDS011;54641;50.168;8.492;2023-02-15T07:10:34;39.30;;;16.10;;
64037;SDS011;54641;50.168;8.492;2023-02-15T07:13:05;36.30;;;14.30;;
64037;SDS011;54641;50.168;8.492;2023-02-15T07:15:35;33.10;;;13.20;;
64037;SDS011;54641;50.168;8.492;2023-02-15T07:18:06;43.60;;;16.10;;
64037;SDS011;54641;50.168;8.492;2023-02-15T07:20:36;57.10;;;18.00;;
64037;SDS011;54641;50.168;8.492;2023-02-15T07:23:09;42.50;;;17.10;;
64037;SDS011;54641;50.168;8.492;2023-02-15T07:25:39;37.10;;;16.90;;
64037;SDS011;54641;50.168;8.492;2023-02-15T07:28:10;36.60;;;15.60;;
64037;SDS011;54641;50.168;8.492;2023-02-15T07:30:40;34.00;;;14.30;;
64037;SDS011;54641;50.168;8.492;2023-02-15T07:33:10;42.50;;;16.50;;
64037;SDS011;54641;50.168;8.492;2023-02-15T07:35:55;45.60;;;16.70;;
64037;SDS011;54641;50.168;8.492;2023-02-15T07:38:27;33.10;;;14.90;;
64037;SDS011;54641;50.168;8.492;2023-02-15T07:40:59;33.70;;;15.80;;
64037;SDS011;54641;50.168;8.492;2023-02-15T07:43:30;33.80;;;14.60;;
64037;SDS011;54641;50.168;8.492;2023-02-15T07:46:01;27.40;;;12.30;;
64037;SDS011;54641;50.168;8.492;2023-02-15T07:48:32;40.70;;;16.90;;
64037;SDS011;54641;50.168;8.492;2023-02-15T07:51:03;40.50;;;16.30;;
64037;SDS011;54641;50.168;8.492;2023-02-15T07:53:36;31.00;;;13.70;;
64037;SDS011;54641;50.168;8.492;2023-02-15T07:56:08;27.00;;;13.10;;
64037;SDS011;54641;50.168;8.492;2023-02-15T07:58:39;27.20;;;12.40;;
64037;SDS011;54641;50.168;8.492;2023-02-15T08:01:20;27.10;;;12.10;;
64037;SDS011;54641;50.168;8.492;2023-02-15T08:03:51;30.90;;;13.20;;
64037;SDS011;54641;50.168;8.492;2023-02-15T08:06:23;32.50;;;13.60;;
64037;SDS011;54641;50.168;8.492;2023-02-15T08:08:54;27.80;;;12.60;;
64037;SDS011;54641;50.168;8.492;2023-02-15T08:11:24;25.20;;;12.00;;
64037;SDS011;54641;50.168;8.492;2023-02-15T08:14:02;26.40;;;12.70;;
64037;SDS011;54641;50.168;8.492;2023-02-15T08:16:35;20.80;;;10.00;;
64037;SDS011;54641;50.168;8.492;2023-02-15T08:19:07;25.40;;;10.90;;
64037;SDS011;54641;50.168;8.492;2023-02-15T08:21:39;30.20;;;12.10;;
64037;SDS011;54641;50.168;8.492;2023-02-15T08:24:10;32.10;;;12.90;;
64037;SDS011;54641;50.168;8.492;2023-02-15T08:26:42;26.30;;;12.30;;
64037;SDS011;54641;50.168;8.492;2023-02-15T08:29:14;21.80;;;10.50;;
64037;SDS011;54641;50.168;8.492;2023-02-15T08:31:46;20.80;;;10.90;;
64037;SDS011;54641;50.168;8.492;2023-02-15T08:34:17;24.10;;;12.00;;
64037;SDS011;54641;50.168;8.492;2023-02-15T08:36:48;22.60;;;11.20;;
64037;SDS011;54641;50.168;8.492;2023-02-15T08:39:19;25.90;;;11.90;;
64037;SDS011;54641;50.168;8.492;2023-02-15T08:41:49;23.10;;;9.90;;
64037;SDS011;54641;50.168;8.492;2023-02-15T08:44:20;21.30;;;12.30;;
64037;SDS011;54641;50.168;8.492;2023-02-15T08:46:50;19.70;;;9.90;;
64037;SDS011;54641;50.168;8.492;2023-02-15T08:49:22;21.40;;;10.80;;
64037;SDS011;54641;50.168;8.492;2023-02-15T08:51:52;18.90;;;9.20;;
64037;SDS011;54641;50.168;8.492;2023-02-15T08:54:22;13.70;;;7.50;;
64037;SDS011;54641;50.168;8.492;2023-02-15T08:56:53;22.70;;;10.50;;
64037;SDS011;54641;50.168;8.492;2023-02-15T08:59:23;22.60;;;10.40;;
64037;SDS011;54641;50.168;8.492;2023-02-15T09:01:54;16.10;;;8.30;;
64037;SDS011;54641;50.168;8.492;2023-02-15T09:04:25;15.10;;;9.00;;
64037;SDS011;54641;50.168;8.492;2023-02-15T09:06:55;18.70;;;9.80;;
64037;SDS011;54641;50.168;8.492;2023-02-15T09:09:26;23.40;;;10.70;;
64037;SDS011;54641;50.168;8.492;2023-02-15T09:11:56;20.90;;;10.30;;
64037;SDS011;54641;50.168;8.492;2023-02-15T09:14:26;19.20;;;10.20;;
64037;SDS011;54641;50.168;8.492;2023-02-15T09:23:49;21.90;;;9.80;;
64037;SDS011;54641;50.168;8.492;2023-02-15T09:26:24;21.40;;;10.90;;
64037;SDS011;54641;50.168;8.492;2023-02-15T09:28:56;14.30;;;7.30;;
64037;SDS011;54641;50.168;8.492;2023-02-15T09:31:28;19.20;;;10.00;;
64037;SDS011;54641;50.168;8.492;2023-02-15T09:34:00;17.50;;;9.50;;
64037;SDS011;54641;50.168;8.492;2023-02-15T09:36:32;18.40;;;9.30;;
64037;SDS011;54641;50.168;8.492;2023-02-15T09:39:06;18.20;;;9.30;;
64037;SDS011;54641;50.168;8.492;2023-02-15T09:41:43;20.80;;;9.50;;
64037;SDS011;54641;50.168;8.492;2023-02-15T09:44:35;16.10;;;8.50;;
64037;SDS011;54641;50.168;8.492;2023-02-15T09:47:20;15.10;;;7.80;;
64037;SDS011;54641;50.168;8.492;2023-02-15T09:50:09;17.60;;;8.30;;
64037;SDS011;54641;50.168;8.492;2023-02-15T09:52:53;14.70;;;7.30;;
64037;SDS011;54641;50.168;8.492;2023-02-15T09:55:36;22.80;;;10.40;;
64037;SDS011;54641;50.168;8.492;2023-02-15T09:58:14;24.50;;;11.50;;
64037;SDS011;54641;50.168;8.492;2023-02-15T10:00:48;21.60;;;10.80;;
64037;SDS011;54641;50.168;8.492;2023-02-15T10:03:30;20.10;;;10.10;;
64037;SDS011;54641;50.168;8.492;2023-02-15T10:06:20;17.20;;;8.80;;
64037;SDS011;54641;50.168;8.492;2023-02-15T10:09:12;18.40;;;9.20;;
64037;SDS011;54641;50.168;8.492;2023-02-15T10:11:56;19.20;;;10.40;;
64037;SDS011;54641;50.168;8.492;2023-02-15T10:17:27;21.30;;;9.90;;
64037;SDS011;54641;50.168;8.492;2023-02-15T10:20:08;18.60;;;9.60;;
64037;SDS011;54641;50.168;8.492;2023-02-15T10:22:49;15.60;;;8.50;;
64037;SDS011;54641;50.168;8.492;2023-02-15T10:25:33;18.50;;;9.40;;
64037;SDS011;54641;50.168;8.492;2023-02-15T10:28:11;18.10;;;9.40;;
64037;SDS011;54641;50.168;8.492;2023-02-15T10:30:47;19.00;;;8.80;;
64037;SDS011;54641;50.168;8.492;2023-02-15T10:33:26;21.20;;;9.30;;
64037;SDS011;54641;50.168;8.492;2023-02-15T10:36:08;18.40;;;8.90;;
64037;SDS011;54641;50.168;8.492;2023-02-15T10:38:46;17.20;;;9.00;;
64037;SDS011;54641;50.168;8.492;2023-02-15T10:41:26;16.70;;;8.20;;
64037;SDS011;54641;50.168;8.492;2023-02-15T10:44:08;20.00;;;9.70;;
64037;SDS011;54641;50.168;8.492;2023-02-15T10:46:51;20.60;;;10.50;;
64037;SDS011;54641;50.168;8.492;2023-02-15T10:49:33;21.70;;;9.90;;
64037;SDS011;54641;50.168;8.492;2023-02-15T10:52:13;18.90;;;9.90;;
64037;SDS011;54641;50.168;8.492;2023-02-15T10:54:53;15.80;;;8.20;;
64037;SDS011;54641;50.168;8.492;2023-02-15T10:57:29;19.70;;;10.10;;
64037;SDS011;54641;50.168;8.492;2023-02-15T11:00:11;18.40;;;8.40;;
64037;SDS011;54641;50.168;8.492;2023-02-15T11:02:52;16.90;;;8.50;;
64037;SDS011;54641;50.168;8.492;2023-02-15T11:05:42;20.20;;;9.00;;
64037;SDS011;54641;50.168;8.492;2023-02-15T11:08:17;16.90;;;8.10;;
64037;SDS011;54641;50.168;8.492;2023-02-15T11:10:49;19.80;;;10.50;;
64037;SDS011;54641;50.168;8.492;2023-02-15T11:13:22;22.20;;;10.80;;
64037;SDS011;54641;50.168;8.492;2023-02-15T11:18:25;23.80;;;10.40;;
64037;SDS011;54641;50.168;8.492;2023-02-15T11:21:01;26.20;;;10.40;;
64037;SDS011;54641;50.168;8.492;2023-02-15T11:23:32;27.10;;;11.50;;
64037;SDS011;54641;50.168;8.492;2023-02-15T11:26:04;21.50;;;10.50;;
64037;SDS011;54641;50.168;8.492;2023-02-15T11:28:39;18.20;;;8.70;;
64037;SDS011;54641;50.168;8.492;2023-02-15T11:31:15;21.30;;;10.30;;
64037;SDS011;54641;50.168;8.492;2023-02-15T11:33:47;23.10;;;10.30;;
64037;SDS011;54641;50.168;8.492;2023-02-15T11:38:50;27.30;;;11.70;;
64037;SDS011;54641;50.168;8.492;2023-02-15T11:41:27;22.00;;;10.00;;
64037;SDS011;54641;50.168;8.492;2023-02-15T11:43:59;22.60;;;10.40;;
64037;SDS011;54641;50.168;8.492;2023-02-15T11:49:07;19.10;;;8.50;;
64037;SDS011;54641;50.168;8.492;2023-02-15T11:51:40;24.70;;;10.90;;
64037;SDS011;54641;50.168;8.492;2023-02-15T11:54:11;21.90;;;10.80;;
64037;SDS011;54641;50.168;8.492;2023-02-15T11:56:41;23.50;;;11.80;;
64037;SDS011;54641;50.168;8.492;2023-02-15T11:59:14;28.20;;;12.80;;
64037;SDS011;54641;50.168;8.492;2023-02-15T12:01:50;23.20;;;10.90;;
64037;SDS011;54641;50.168;8.492;2023-02-15T12:04:22;24.30;;;10.50;;
64037;SDS011;54641;50.168;8.492;2023-02-15T12:06:57;29.50;;;13.80;;
64037;SDS011;54641;50.168;8.492;2023-02-15T12:09:31;30.40;;;13.40;;
64037;SDS011;54641;50.168;8.492;2023-02-15T12:15:01;30.90;;;13.60;;
64037;SDS011;54641;50.168;8.492;2023-02-15T12:17:34;30.50;;;14.90;;
64037;SDS011;54641;50.168;8.492;2023-02-15T12:20:21;30.40;;;12.10;;
64037;SDS011;54641;50.168;8.492;2023-02-15T12:22:53;33.30;;;14.50;;
64037;SDS011;54641;50.168;8.492;2023-02-15T12:25:33;28.20;;;13.40;;
64037;SDS011;54641;50.168;8.492;2023-02-15T12:28:15;29.50;;;13.10;;
64037;SDS011;54641;50.168;8.492;2023-02-15T12:30:52;30.70;;;13.80;;
64037;SDS011;54641;50.168;8.492;2023-02-15T12:33:25;26.80;;;13.40;;
64037;SDS011;54641;50.168;8.492;2023-02-15T12:35:59;29.40;;;12.70;;
64037;SDS011;54641;50.168;8.492;2023-02-15T12:38:31;35.90;;;14.40;;
64037;SDS011;54641;50.168;8.492;2023-02-15T12:41:02;35.60;;;15.30;;
64037;SDS011;54641;50.168;8.492;2023-02-15T12:43:34;37.60;;;16.40;;
64037;SDS011;54641;50.168;8.492;2023-02-15T12:46:19;38.60;;;16.50;;
64037;SDS011;54641;50.168;8.492;2023-02-15T12:51:47;30.50;;;12.50;;
64037;SDS011;54641;50.168;8.492;2023-02-15T12:57:14;36.00;;;16.20;;
64037;SDS011;54641;50.168;8.492;2023-02-15T12:59:56;35.30;;;15.20;;
64037;SDS011;54641;50.168;8.492;2023-02-15T13:02:29;40.80;;;16.90;;
64037;SDS011;54641;50.168;8.492;2023-02-15T13:05:10;36.20;;;15.90;;
64037;SDS011;54641;50.168;8.492;2023-02-15T13:07:47;37.30;;;16.20;;
64037;SDS011;54641;50.168;8.492;2023-02-15T13:10:21;37.50;;;15.90;;
64037;SDS011;54641;50.168;8.492;2023-02-15T13:12:53;41.80;;;18.00;;
64037;SDS011;54641;50.168;8.492;2023-02-15T13:15:26;33.60;;;16.80;;
64037;SDS011;54641;50.168;8.492;2023-02-15T13:18:01;36.00;;;16.90;;
64037;SDS011;54641;50.168;8.492;2023-02-15T13:20:33;36.30;;;16.10;;
64037;SDS011;54641;50.168;8.492;2023-02-15T13:23:13;39.50;;;16.90;;
64037;SDS011;54641;50.168;8.492;2023-02-15T13:25:51;42.30;;;17.10;;
64037;SDS011;54641;50.168;8.492;2023-02-15T13:28:22;33.90;;;14.10;;
64037;SDS011;54641;50.168;8.492;2023-02-15T13:30:56;34.80;;;14.80;;
64037;SDS011;54641;50.168;8.492;2023-02-15T13:33:27;36.10;;;17.00;;
64037;SDS011;54641;50.168;8.492;2023-02-15T13:41:38;36.10;;;16.40;;
64037;SDS011;54641;50.168;8.492;2023-02-15T13:44:18;43.90;;;17.20;;
64037;SDS011;54641;50.168;8.492;2023-02-15T13:46:55;45.70;;;18.10;;
64037;SDS011;54641;50.168;8.492;2023-02-15T13:49:37;39.50;;;18.10;;
64037;SDS011;54641;50.168;8.492;2023-02-15T13:52:15;43.30;;;17.70;;
64037;SDS011;54641;50.168;8.492;2023-02-15T13:54:52;35.30;;;15.40;;
64037;SDS011;54641;50.168;8.492;2023-02-15T13:57:31;39.80;;;18.70;;
64037;SDS011;54641;50.168;8.492;2023-02-15T14:00:14;42.40;;;19.40;;
64037;SDS011;54641;50.168;8.492;2023-02-15T14:06:08;33.00;;;14.20;;
64037;SDS011;54641;50.168;8.492;2023-02-15T14:08:49;43.20;;;20.30;;
64037;SDS011;54641;50.168;8.492;2023-02-15T14:11:29;44.80;;;20.00;;
64037;SDS011;54641;50.168;8.492;2023-02-15T14:14:09;46.30;;;17.90;;
64037;SDS011;54641;50.168;8.492;2023-02-15T14:16:51;44.00;;;19.70;;
64037;SDS011;54641;50.168;8.492;2023-02-15T14:19:35;45.50;;;18.80;;
64037;SDS011;54641;50.168;8.492;2023-02-15T14:22:13;42.40;;;19.40;;
64037;SDS011;54641;50.168;8.492;2023-02-15T14:24:52;46.90;;;19.10;;
64037;SDS011;54641;50.168;8.492;2023-02-15T14:27:37;39.00;;;16.00;;
64037;SDS011;54641;50.168;8.492;2023-02-15T14:30:14;46.70;;;19.10;;
64037;SDS011;54641;50.168;8.492;2023-02-15T14:32:49;49.20;;;19.10;;
64037;SDS011;54641;50.168;8.492;2023-02-15T14:35:22;49.50;;;21.90;;
64037;SDS011;54641;50.168;8.492;2023-02-15T14:37:58;43.10;;;19.40;;
64037;SDS011;54641;50.168;8.492;2023-02-15T14:40:32;56.60;;;22.40;;
64037;SDS011;54641;50.168;8.492;2023-02-15T14:43:27;54.70;;;20.70;;
64037;SDS011;54641;50.168;8.492;2023-02-15T14:46:03;54.70;;;21.40;;
64037;SDS011;54641;50.168;8.492;2023-02-15T14:48:41;48.60;;;20.50;;
64037;SDS011;54641;50.168;8.492;2023-02-15T14:51:18;48.70;;;20.70;;
64037;SDS011;54641;50.168;8.492;2023-02-15T14:57:25;44.90;;;19.70;;
64037;SDS011;54641;50.168;8.492;2023-02-15T15:00:02;52.40;;;21.20;;
64037;SDS011;54641;50.168;8.492;2023-02-15T15:02:50;52.60;;;21.50;;
64037;SDS011;54641;50.168;8.492;2023-02-15T15:05:23;38.70;;;16.20;;
64037;SDS011;54641;50.168;8.492;2023-02-15T15:07:58;46.60;;;19.70;;
64037;SDS011;54641;50.168;8.492;2023-02-15T15:10:40;48.40;;;21.30;;
64037;SDS011;54641;50.168;8.492;2023-02-15T15:16:25;50.90;;;19.50;;
64037;SDS011;54641;50.168;8.492;2023-02-15T15:19:02;56.00;;;20.60;;
64037;SDS011;54641;50.168;8.492;2023-02-15T15:21:53;47.50;;;19.70;;
64037;SDS011;54641;50.168;8.492;2023-02-15T15:36:58;53.80;;;21.60;;
64037;SDS011;54641;50.168;8.492;2023-02-15T15:42:54;45.90;;;21.00;;
64037;SDS011;54641;50.168;8.492;2023-02-15T15:45:42;47.00;;;20.30;;
64037;SDS011;54641;50.168;8.492;2023-02-15T15:48:29;39.20;;;16.30;;
64037;SDS011;54641;50.168;8.492;2023-02-15T15:51:03;46.80;;;19.00;;
64037;SDS011;54641;50.168;8.492;2023-02-15T15:53:39;47.60;;;18.30;;
64037;SDS011;54641;50.168;8.492;2023-02-15T15:56:13;48.60;;;20.70;;
64037;SDS011;54641;50.168;8.492;2023-02-15T15:58:46;44.70;;;19.80;;
64037;SDS011;54641;50.168;8.492;2023-02-15T16:01:25;48.90;;;20.70;;
64037;SDS011;54641;50.168;8.492;2023-02-15T16:03:58;45.50;;;18.70;;
64037;SDS011;54641;50.168;8.492;2023-02-15T16:06:30;54.00;;;23.20;;
64037;SDS011;54641;50.168;8.492;2023-02-15T16:09:10;43.70;;;19.50;;
64037;SDS011;54641;50.168;8.492;2023-02-15T16:11:42;47.50;;;21.60;;
64037;SDS011;54641;50.168;8.492;2023-02-15T16:14:14;53.20;;;23.30;;
64037;SDS011;54641;50.168;8.492;2023-02-15T16:16:51;52.50;;;19.90;;
64037;SDS011;54641;50.168;8.492;2023-02-15T16:19:23;56.60;;;22.50;;
64037;SDS011;54641;50.168;8.492;2023-02-15T16:21:57;46.40;;;21.20;;
64037;SDS011;54641;50.168;8.492;2023-02-15T16:24:47;51.50;;;21.30;;
64037;SDS011;54641;50.168;8.492;2023-02-15T16:27:29;56.30;;;23.20;;
64037;SDS011;54641;50.168;8.492;2023-02-15T16:30:23;55.20;;;23.30;;
64037;SDS011;54641;50.168;8.492;2023-02-15T16:33:03;68.70;;;25.40;;